createdAt,value
2018-06-11T00:00:20.075Z,17.87
2018-06-11T00:02:49.963Z,17.17
2018-06-11T00:05:20.070Z,18.23
2018-06-11T00:07:50.728Z,18.63
2018-06-11T00:10:21.021Z,17.47
2018-06-11T00:12:51.238Z,18.77
2018-06-11T00:15:20.943Z,17.67
2018-06-11T00:17:51.286Z,18.80
2018-06-11T00:20:21.659Z,16.63
2018-06-11T00:22:52.053Z,17.80
2018-06-11T00:25:22.412Z,17.13
2018-06-11T00:27:52.571Z,17.77
2018-06-11T00:30:22.809Z,17.70
2018-06-11T00:32:52.877Z,17.63
2018-06-11T00:35:22.788Z,18.70
2018-06-11T00:37:52.927Z,18.60
2018-06-11T00:40:24.184Z,18.27
2018-06-11T00:42:54.398Z,18.07
2018-06-11T00:45:24.531Z,17.37
2018-06-11T00:47:54.755Z,17.93
2018-06-11T00:50:24.855Z,17.17
2018-06-11T00:52:55.126Z,17.90
2018-06-11T00:55:25.078Z,18.50
2018-06-11T00:57:55.486Z,18.13
2018-06-11T01:00:25.868Z,17.70
2018-06-11T01:02:55.949Z,17.97
2018-06-11T01:05:26.118Z,18.20
2018-06-11T01:07:56.442Z,18.80
2018-06-11T01:10:26.467Z,18.30
2018-06-11T01:12:56.492Z,18.43
2018-06-11T01:15:26.412Z,18.73
2018-06-11T01:17:56.696Z,18.60
2018-06-11T01:20:27.425Z,18.13
2018-06-11T01:22:58.426Z,17.50
2018-06-11T01:25:29.513Z,17.30
2018-06-11T01:27:59.689Z,19.07
2018-06-11T01:30:29.628Z,18.93
2018-06-11T01:32:59.726Z,18.30
2018-06-11T01:35:29.630Z,18.50
2018-06-11T01:37:59.933Z,18.77
2018-06-11T01:40:29.973Z,17.97
2018-06-11T01:43:00.369Z,18.43
2018-06-11T01:45:30.386Z,18.53
2018-06-11T01:48:00.625Z,17.83
2018-06-11T01:50:30.793Z,18.80
2018-06-11T01:53:01.965Z,17.13
2018-06-11T01:55:32.275Z,18.77
2018-06-11T01:58:02.605Z,18.93
2018-06-11T02:00:32.448Z,18.50
2018-06-11T02:03:03.857Z,19.03
2018-06-11T02:05:33.778Z,19.60
2018-06-11T02:08:03.923Z,20.00
2018-06-11T02:10:34.159Z,20.30
2018-06-11T02:13:04.299Z,21.23
2018-06-11T02:15:34.645Z,21.67
2018-06-11T02:18:04.643Z,22.40
2018-06-11T02:20:34.584Z,25.20
2018-06-11T02:23:04.895Z,24.60
2018-06-11T02:25:35.726Z,26.67
2018-06-11T02:28:06.147Z,26.07
2018-06-11T02:31:02.516Z,26.17
2018-06-11T02:33:32.678Z,26.60
2018-06-11T02:36:02.732Z,27.77
2018-06-11T02:41:29.299Z,26.53
2018-06-11T02:43:59.755Z,25.37
2018-06-11T02:46:29.762Z,26.37
2018-06-11T02:48:59.932Z,27.67
2018-06-11T02:51:30.065Z,27.10
2018-06-11T02:54:00.216Z,31.03
2018-06-11T02:56:30.509Z,28.87
2018-06-11T02:59:00.559Z,25.13
2018-06-11T03:01:30.696Z,30.10
2018-06-11T03:04:17.908Z,29.97
2018-06-11T03:06:47.875Z,28.00
2018-06-11T03:09:17.864Z,32.93
2018-06-11T03:11:47.792Z,31.47
2018-06-11T03:14:17.932Z,31.23
2018-06-11T03:16:48.485Z,31.30
2018-06-11T03:19:18.696Z,31.03
2018-06-11T03:21:48.577Z,33.10
2018-06-11T03:24:18.469Z,30.97
2018-06-11T03:26:48.725Z,39.75
2018-06-11T03:29:18.995Z,33.53
2018-06-11T03:31:49.123Z,32.93
2018-06-11T03:34:25.004Z,32.63
2018-06-11T03:36:55.223Z,35.07
2018-06-11T03:39:25.246Z,33.47
2018-06-11T03:41:55.532Z,30.97
2018-06-11T03:44:25.682Z,34.37
2018-06-11T03:46:55.733Z,34.43
2018-06-11T03:49:26.152Z,34.57
2018-06-11T03:51:56.425Z,34.57
2018-06-11T03:54:27.474Z,33.00
2018-06-11T03:56:57.648Z,32.83
2018-06-11T03:59:27.539Z,32.37
2018-06-11T04:01:57.843Z,32.03
2018-06-11T04:04:28.179Z,33.80
2018-06-11T04:06:58.379Z,35.13
2018-06-11T04:09:28.218Z,36.13
2018-06-11T04:11:58.311Z,36.43
2018-06-11T04:14:28.280Z,35.90
2018-06-11T04:16:58.424Z,33.30
2018-06-11T04:19:28.566Z,32.20
2018-06-11T04:21:59.127Z,29.17
2018-06-11T04:24:29.510Z,30.40
2018-06-11T04:26:59.738Z,28.60
2018-06-11T04:29:30.204Z,30.47
2018-06-11T04:32:01.473Z,29.53
2018-06-11T04:34:31.360Z,27.97
2018-06-11T04:37:01.535Z,29.13
2018-06-11T04:39:31.761Z,28.13
2018-06-11T04:42:01.896Z,28.27
2018-06-11T04:44:32.035Z,29.03
2018-06-11T04:47:02.493Z,27.77
2018-06-11T04:49:32.677Z,24.03
2018-06-11T04:52:02.556Z,26.23
2018-06-11T04:54:33.551Z,26.63
2018-06-11T04:57:03.758Z,27.47
2018-06-11T04:59:33.938Z,29.93
2018-06-11T05:02:04.597Z,29.70
2018-06-11T05:04:34.939Z,29.23
2018-06-11T05:07:06.182Z,30.77
2018-06-11T05:09:36.291Z,29.73
2018-06-11T05:12:06.442Z,31.67
2018-06-11T05:14:37.565Z,29.63
2018-06-11T05:17:07.768Z,31.33
2018-06-11T05:19:37.767Z,31.17
2018-06-11T05:22:07.967Z,30.77
2018-06-11T05:24:37.895Z,30.90
2018-06-11T05:27:08.009Z,32.60
2018-06-11T05:29:38.038Z,32.40
2018-06-11T05:32:08.171Z,31.93
2018-06-11T05:34:38.438Z,32.53
2018-06-11T05:37:08.865Z,31.97
2018-06-11T05:39:39.178Z,34.33
2018-06-11T05:42:09.278Z,33.50
2018-06-11T05:44:39.472Z,32.43
2018-06-11T05:47:09.357Z,33.77
2018-06-11T05:49:39.791Z,31.93
2018-06-11T05:52:10.048Z,33.20
2018-06-11T05:54:40.540Z,34.17
2018-06-11T05:57:10.499Z,34.63
2018-06-11T05:59:40.676Z,35.43
2018-06-11T06:02:10.529Z,33.53
2018-06-11T06:04:40.660Z,35.03
2018-06-11T06:07:10.873Z,35.17
2018-06-11T06:09:45.022Z,36.33
2018-06-11T06:12:15.178Z,34.90
2018-06-11T06:14:45.403Z,35.23
2018-06-11T06:17:15.533Z,33.73
2018-06-11T06:19:45.797Z,36.40
2018-06-11T06:22:16.058Z,39.13
2018-06-11T06:24:46.153Z,42.27
2018-06-11T06:27:16.099Z,41.30
2018-06-11T06:29:46.393Z,41.10
2018-06-11T06:32:16.673Z,44.23
2018-06-11T06:34:46.619Z,42.40
2018-06-11T06:37:16.775Z,42.83
2018-06-11T06:39:46.975Z,43.03
2018-06-11T06:42:17.133Z,41.27
2018-06-11T06:44:47.422Z,44.53
2018-06-11T06:47:17.538Z,44.07
2018-06-11T06:49:47.715Z,43.07
2018-06-11T06:52:17.913Z,42.00
2018-06-11T06:54:48.028Z,43.23
2018-06-11T06:57:17.950Z,45.10
2018-06-11T06:59:48.272Z,37.67
2018-06-11T07:02:18.341Z,41.97
2018-06-11T07:04:48.424Z,40.43
2018-06-11T07:07:18.492Z,39.97
2018-06-11T07:09:48.597Z,42.30
2018-06-11T07:12:18.533Z,38.70
2018-06-11T07:14:48.696Z,40.57
2018-06-11T07:17:18.900Z,40.53
2018-06-11T07:19:49.186Z,39.43
2018-06-11T07:22:19.298Z,37.37
2018-06-11T07:24:49.439Z,36.53
2018-06-11T07:27:20.723Z,35.10
2018-06-11T07:29:50.793Z,32.80
2018-06-11T07:32:21.810Z,33.57
2018-06-11T07:34:52.023Z,33.50
2018-06-11T07:37:21.916Z,31.27
2018-06-11T07:39:52.217Z,30.60
2018-06-11T07:42:22.227Z,27.77
2018-06-11T07:44:52.465Z,27.97
2018-06-11T07:47:22.599Z,27.87
2018-06-11T07:49:52.920Z,30.10
2018-06-11T07:52:23.007Z,28.63
2018-06-11T07:54:54.100Z,28.60
2018-06-11T07:57:24.211Z,28.73
2018-06-11T07:59:55.448Z,28.40
2018-06-11T08:02:25.504Z,28.20
2018-06-11T08:04:55.693Z,28.47
2018-06-11T08:07:25.929Z,27.83
2018-06-11T08:09:56.246Z,27.93
2018-06-11T08:12:26.268Z,27.63
2018-06-11T08:14:56.340Z,26.03
2018-06-11T08:17:26.447Z,28.10
2018-06-11T08:19:56.607Z,27.37
2018-06-11T08:22:26.802Z,27.57
2018-06-11T08:24:57.001Z,27.90
2018-06-11T08:27:27.288Z,28.27
2018-06-11T08:29:57.480Z,27.67
2018-06-11T08:32:27.790Z,27.70
2018-06-11T08:34:58.226Z,24.40
2018-06-11T08:37:28.303Z,24.20
2018-06-11T08:39:58.313Z,25.07
2018-06-11T08:42:28.585Z,25.00
2018-06-11T08:44:58.580Z,22.90
2018-06-11T08:47:28.583Z,23.27
2018-06-11T08:49:58.770Z,22.63
2018-06-11T08:52:29.108Z,19.90
2018-06-11T08:54:59.279Z,20.67
2018-06-11T08:57:29.494Z,20.50
2018-06-11T08:59:59.684Z,22.27
2018-06-11T09:02:29.642Z,22.30
2018-06-11T09:04:59.696Z,20.50
2018-06-11T09:07:29.999Z,22.30
2018-06-11T09:10:00.134Z,22.40
2018-06-11T09:12:30.436Z,22.10
2018-06-11T09:15:00.668Z,22.07
2018-06-11T09:17:30.820Z,22.27
2018-06-11T09:20:00.995Z,21.97
2018-06-11T09:22:32.282Z,25.50
2018-06-11T09:25:02.444Z,24.40
2018-06-11T09:27:32.641Z,25.37
2018-06-11T09:30:02.637Z,23.83
2018-06-11T09:32:32.941Z,23.03
2018-06-11T09:37:37.906Z,21.70
2018-06-11T09:40:09.016Z,20.90
2018-06-11T09:42:39.059Z,21.83
2018-06-11T09:45:08.771Z,20.60
2018-06-11T09:47:38.721Z,18.30
2018-06-11T09:50:08.879Z,18.27
2018-06-11T09:52:39.139Z,18.30
2018-06-11T09:55:09.607Z,15.97
2018-06-11T09:57:40.014Z,16.67
2018-06-11T10:00:13.906Z,16.10
2018-06-11T10:02:43.982Z,14.93
2018-06-11T10:05:15.019Z,15.57
2018-06-11T10:07:45.066Z,16.13
2018-06-11T10:10:15.364Z,17.10
2018-06-11T10:12:45.445Z,16.80
2018-06-11T10:15:15.398Z,16.77
2018-06-11T10:17:45.980Z,16.57
2018-06-11T10:20:16.201Z,17.10
2018-06-11T10:22:46.511Z,17.93
2018-06-11T10:25:16.594Z,18.13
2018-06-11T10:27:46.805Z,17.87
2018-06-11T10:30:17.004Z,18.07
2018-06-11T10:32:47.044Z,17.50
2018-06-11T10:35:17.118Z,17.90
2018-06-11T10:37:47.295Z,17.13
2018-06-11T10:40:17.426Z,16.93
2018-06-11T10:42:47.459Z,17.23
2018-06-11T10:45:17.633Z,17.07
2018-06-11T10:47:47.867Z,16.20
2018-06-11T10:50:18.670Z,16.33
2018-06-11T10:52:48.665Z,15.40
2018-06-11T10:55:18.881Z,16.90
2018-06-11T10:57:48.815Z,15.93
2018-06-11T11:00:18.905Z,16.07
2018-06-11T11:02:48.774Z,14.47
2018-06-11T11:05:18.995Z,14.33
2018-06-11T11:07:49.319Z,15.47
2018-06-11T11:10:19.708Z,14.17
2018-06-11T11:12:49.846Z,13.63
2018-06-11T11:15:21.068Z,13.80
2018-06-11T11:17:51.368Z,14.50
2018-06-11T11:20:21.741Z,14.87
2018-06-11T11:22:51.990Z,14.93
2018-06-11T11:25:22.060Z,14.23
2018-06-11T11:27:52.712Z,14.80
2018-06-11T11:30:22.994Z,14.63
2018-06-11T11:32:53.237Z,12.37
2018-06-11T11:35:23.574Z,12.00
2018-06-11T11:37:53.907Z,12.17
2018-06-11T11:40:24.239Z,11.50
2018-06-11T11:42:54.220Z,12.87
2018-06-11T11:45:24.412Z,12.40
2018-06-11T11:47:54.452Z,11.77
2018-06-11T11:50:24.841Z,10.50
2018-06-11T11:52:55.851Z,10.80
2018-06-11T11:55:26.020Z,11.37
2018-06-11T11:57:55.954Z,11.83
2018-06-11T12:00:26.455Z,11.00
2018-06-11T12:02:57.497Z,10.57
2018-06-11T12:05:27.971Z,10.30
2018-06-11T12:07:58.169Z,10.33
2018-06-11T12:10:28.077Z,10.30
2018-06-11T12:12:58.259Z,9.90
2018-06-11T12:15:28.170Z,10.53
2018-06-11T12:17:58.252Z,10.60
2018-06-11T12:20:29.139Z,9.40
2018-06-11T12:22:59.153Z,10.40
2018-06-11T12:25:29.265Z,10.30
2018-06-11T12:27:59.465Z,10.63
2018-06-11T12:30:29.723Z,9.95
2018-06-11T12:32:59.788Z,10.57
2018-06-11T12:35:30.008Z,10.10
2018-06-11T12:38:00.285Z,9.80
2018-06-11T12:40:30.423Z,10.80
2018-06-11T12:43:00.649Z,10.77
2018-06-11T12:45:31.061Z,10.20
2018-06-11T12:48:00.953Z,9.67
2018-06-11T12:50:32.013Z,9.63
2018-06-11T12:53:02.206Z,10.90
2018-06-11T12:55:32.588Z,11.47
2018-06-11T12:58:07.299Z,10.40
2018-06-11T13:00:37.596Z,10.03
2018-06-11T13:03:07.949Z,9.77
2018-06-11T13:05:38.113Z,9.50
2018-06-11T13:08:08.046Z,10.00
2018-06-11T13:10:38.320Z,10.10
2018-06-11T13:13:08.581Z,9.13
2018-06-11T13:15:38.792Z,9.40
2018-06-11T13:18:08.805Z,9.13
2018-06-11T13:20:38.972Z,9.00
2018-06-11T13:23:09.285Z,10.17
2018-06-11T13:25:39.624Z,9.00
2018-06-11T13:28:09.896Z,9.13
2018-06-11T13:30:39.979Z,8.23
2018-06-11T13:33:10.209Z,8.20
2018-06-11T13:35:40.496Z,8.10
2018-06-11T13:38:10.951Z,8.87
2018-06-11T13:40:41.052Z,8.37
2018-06-11T13:43:11.053Z,8.00
2018-06-11T13:45:41.571Z,8.70
2018-06-11T13:48:11.571Z,7.50
2018-06-11T13:50:41.692Z,8.17
2018-06-11T13:53:12.212Z,7.80
2018-06-11T13:55:42.442Z,7.57
2018-06-11T13:58:12.466Z,7.90
2018-06-11T14:00:42.495Z,8.60
2018-06-11T14:03:12.526Z,8.63
2018-06-11T14:05:42.713Z,8.37
2018-06-11T14:08:13.099Z,8.90
2018-06-11T14:10:43.270Z,8.70
2018-06-11T14:13:13.518Z,7.50
2018-06-11T14:15:43.698Z,8.00
2018-06-11T14:18:13.892Z,8.80
2018-06-11T14:20:44.143Z,9.00
2018-06-11T14:23:15.476Z,8.43
2018-06-11T14:25:45.363Z,8.70
2018-06-11T14:28:15.604Z,7.70
2018-06-11T14:30:45.758Z,8.77
2018-06-11T14:33:15.797Z,8.63
2018-06-11T14:35:45.949Z,8.43
2018-06-11T14:38:16.319Z,8.83
2018-06-11T14:40:46.694Z,8.20
2018-06-11T14:43:17.948Z,8.23
2018-06-11T14:45:47.980Z,8.55
2018-06-11T14:48:18.430Z,8.03
2018-06-11T14:50:48.462Z,8.57
2018-06-11T14:53:18.771Z,8.20
2018-06-11T14:55:48.892Z,7.70
2018-06-11T14:58:19.161Z,8.00
2018-06-11T15:00:49.387Z,8.97
2018-06-11T15:03:19.529Z,8.83
2018-06-11T15:05:49.825Z,9.07
2018-06-11T15:08:19.901Z,8.27
2018-06-11T15:10:50.242Z,7.93
2018-06-11T15:13:20.349Z,8.20
2018-06-11T15:15:50.835Z,8.97
2018-06-11T15:18:22.092Z,9.27
2018-06-11T15:20:52.141Z,8.70
2018-06-11T15:23:22.235Z,8.37
2018-06-11T15:25:52.378Z,7.93
2018-06-11T15:28:22.711Z,8.18
2018-06-11T15:30:52.957Z,8.00
2018-06-11T15:33:23.135Z,7.70
2018-06-11T15:35:53.419Z,7.75
2018-06-11T15:38:24.029Z,8.20
2018-06-11T15:40:54.410Z,7.80
2018-06-11T15:43:24.556Z,7.37
2018-06-11T15:45:54.645Z,7.65
2018-06-11T15:48:24.774Z,8.30
2018-06-11T15:50:55.085Z,7.65
2018-06-11T15:53:25.245Z,7.60
2018-06-11T15:55:55.416Z,7.25
2018-06-11T15:58:25.708Z,7.50
2018-06-11T16:00:56.025Z,7.50
2018-06-11T16:03:26.325Z,8.08
2018-06-11T16:05:56.521Z,8.05
2018-06-11T16:08:26.441Z,7.42
2018-06-11T16:10:56.802Z,7.65
2018-06-11T16:13:26.973Z,7.37
2018-06-11T16:15:57.177Z,7.28
2018-06-11T16:18:27.377Z,7.50
2018-06-11T16:20:57.684Z,7.22
2018-06-11T16:23:27.936Z,7.22
2018-06-11T16:25:57.932Z,7.03
2018-06-11T16:28:27.901Z,7.55
2018-06-11T16:30:58.037Z,7.62
2018-06-11T16:33:28.328Z,7.55
2018-06-11T16:38:35.011Z,7.58
2018-06-11T16:41:05.510Z,7.83
2018-06-11T16:43:35.870Z,8.13
2018-06-11T16:46:06.039Z,8.28
2018-06-11T16:48:36.197Z,8.60
2018-06-11T16:51:07.011Z,8.93
2018-06-11T16:53:37.489Z,7.92
2018-06-11T16:56:07.707Z,8.68
2018-06-11T16:58:37.859Z,7.97
2018-06-11T17:01:07.566Z,8.23
2018-06-11T17:03:37.900Z,7.75
2018-06-11T17:06:07.979Z,7.92
2018-06-11T17:08:38.510Z,8.33
2018-06-11T17:11:08.822Z,8.58
2018-06-11T17:13:39.114Z,8.73
2018-06-11T17:16:09.342Z,8.55
2018-06-11T17:18:39.953Z,8.45
2018-06-11T17:21:10.315Z,8.95
2018-06-11T17:23:40.478Z,8.93
2018-06-11T17:26:10.758Z,9.10
2018-06-11T17:28:41.118Z,9.27
2018-06-11T17:31:11.528Z,9.47
2018-06-11T17:33:41.653Z,9.20
2018-06-11T17:36:12.623Z,8.83
2018-06-11T17:38:42.732Z,9.27
2018-06-11T17:41:12.862Z,9.37
2018-06-11T17:43:42.930Z,9.10
2018-06-11T17:46:13.143Z,9.20
2018-06-11T17:48:43.389Z,9.33
2018-06-11T17:51:13.447Z,9.30
2018-06-11T17:53:43.761Z,9.90
2018-06-11T17:56:13.858Z,10.00
2018-06-11T17:58:44.196Z,10.30
2018-06-11T18:01:14.262Z,10.43
2018-06-11T18:03:44.509Z,9.37
2018-06-11T18:06:14.714Z,10.17
2018-06-11T18:08:45.021Z,10.00
2018-06-11T18:11:15.286Z,10.23
2018-06-11T18:13:45.547Z,10.73
2018-06-11T18:16:15.635Z,11.47
2018-06-11T18:18:45.795Z,11.77
2018-06-11T18:21:16.098Z,11.33
2018-06-11T18:23:47.116Z,11.87
2018-06-11T18:26:17.642Z,11.27
2018-06-11T18:28:47.988Z,11.97
2018-06-11T18:31:18.273Z,12.43
2018-06-11T18:33:48.459Z,12.50
2018-06-11T18:36:18.476Z,12.47
2018-06-11T18:38:48.622Z,12.57
2018-06-11T18:41:18.660Z,12.10
2018-06-11T18:43:48.936Z,12.17
2018-06-11T18:46:19.063Z,12.00
2018-06-11T18:48:49.347Z,12.27
2018-06-11T18:51:19.666Z,11.73
2018-06-11T18:53:49.846Z,12.13
2018-06-11T18:56:20.022Z,11.93
2018-06-11T18:58:50.265Z,11.47
2018-06-11T19:01:20.532Z,12.00
2018-06-11T19:03:50.664Z,12.67
2018-06-11T19:06:20.900Z,11.90
2018-06-11T19:08:51.313Z,11.33
2018-06-11T19:11:21.562Z,12.50
2018-06-11T19:13:52.766Z,12.63
2018-06-11T19:16:22.800Z,13.50
2018-06-11T19:18:53.040Z,12.90
2018-06-11T19:21:23.195Z,12.87
2018-06-11T19:23:53.566Z,14.50
2018-06-11T19:26:23.836Z,15.03
2018-06-11T19:28:54.124Z,14.47
2018-06-11T19:31:24.347Z,14.47
2018-06-11T19:33:54.460Z,14.07
2018-06-11T19:36:24.735Z,13.93
2018-06-11T19:38:55.107Z,15.17
2018-06-11T19:41:25.483Z,14.57
2018-06-11T19:43:55.799Z,14.70
2018-06-11T19:46:26.043Z,14.03
2018-06-11T19:48:56.226Z,17.03
2018-06-11T19:51:26.509Z,19.53
2018-06-11T19:53:56.417Z,18.10
2018-06-11T19:56:26.902Z,17.73
2018-06-11T19:58:57.090Z,15.90
2018-06-11T20:01:27.180Z,16.53
2018-06-11T20:03:58.301Z,15.97
2018-06-11T20:06:28.700Z,17.00
2018-06-11T20:08:58.520Z,15.90
2018-06-11T20:11:28.693Z,17.45
2018-06-11T20:13:58.672Z,16.83
2018-06-11T20:16:28.765Z,16.30
2018-06-11T20:18:59.024Z,17.27
2018-06-11T20:21:29.314Z,17.83
2018-06-11T20:23:59.354Z,18.97
2018-06-11T20:26:29.590Z,18.43
2018-06-11T20:28:59.902Z,18.37
2018-06-11T20:31:30.199Z,18.20
2018-06-11T20:34:00.346Z,18.63
2018-06-11T20:36:30.722Z,18.73
2018-06-11T20:39:00.836Z,18.00
2018-06-11T20:41:31.021Z,19.97
2018-06-11T20:44:01.166Z,20.40
2018-06-11T20:46:31.495Z,19.63
2018-06-11T20:49:01.857Z,19.33
2018-06-11T20:51:32.130Z,19.50
2018-06-11T20:54:02.209Z,18.77
2018-06-11T20:56:32.514Z,18.90
2018-06-11T20:59:03.490Z,19.93
2018-06-11T21:01:33.953Z,19.07
2018-06-11T21:04:03.993Z,21.00
2018-06-11T21:06:34.155Z,18.33
2018-06-11T21:09:05.210Z,17.10
2018-06-11T21:11:35.449Z,19.17
2018-06-11T21:14:05.558Z,20.20
2018-06-11T21:16:35.848Z,20.65
2018-06-11T21:19:06.012Z,18.87
2018-06-11T21:21:36.364Z,20.03
2018-06-11T21:24:06.725Z,19.13
2018-06-11T21:26:36.968Z,21.45
2018-06-11T21:29:07.115Z,21.53
2018-06-11T21:31:37.380Z,21.90
2018-06-11T21:34:07.311Z,22.63
2018-06-11T21:36:37.434Z,21.53
2018-06-11T21:39:09.656Z,23.60
2018-06-11T21:41:40.013Z,23.70
2018-06-11T21:44:10.285Z,23.27
2018-06-11T21:46:40.627Z,22.33
2018-06-11T21:49:10.568Z,23.37
2018-06-11T21:51:40.759Z,22.30
2018-06-11T21:54:10.600Z,21.70
2018-06-11T21:56:40.770Z,24.03
2018-06-11T21:59:11.872Z,23.97
2018-06-11T22:01:42.192Z,24.60
2018-06-11T22:04:12.087Z,24.03
2018-06-11T22:06:42.686Z,24.57
2018-06-11T22:09:12.713Z,24.07
2018-06-11T22:11:42.853Z,24.23
2018-06-11T22:14:13.445Z,22.77
2018-06-11T22:16:43.519Z,23.60
2018-06-11T22:19:13.515Z,25.10
2018-06-11T22:21:43.749Z,24.43
2018-06-11T22:24:13.738Z,25.00
2018-06-11T22:26:43.842Z,24.93
2018-06-11T22:29:14.081Z,24.37
2018-06-11T22:31:44.171Z,26.47
2018-06-11T22:34:14.380Z,26.43
2018-06-11T22:36:44.652Z,25.73
2018-06-11T22:39:14.908Z,26.27
2018-06-11T22:41:45.017Z,27.80
2018-06-11T22:44:15.218Z,27.57
2018-06-11T22:46:45.111Z,28.43
2018-06-11T22:49:15.318Z,28.73
2018-06-11T22:51:45.426Z,29.73
2018-06-11T22:54:15.449Z,29.80
2018-06-11T22:56:45.682Z,29.10
2018-06-11T22:59:15.989Z,28.33
2018-06-11T23:01:46.392Z,29.50
2018-06-11T23:04:16.640Z,31.43
2018-06-11T23:06:46.801Z,31.17
2018-06-11T23:09:16.916Z,31.47
2018-06-11T23:11:46.983Z,30.00
2018-06-11T23:14:16.908Z,29.23
2018-06-11T23:16:46.976Z,28.87
2018-06-11T23:19:17.070Z,28.80
2018-06-11T23:21:47.100Z,29.87
2018-06-11T23:24:17.179Z,29.37
2018-06-11T23:26:47.161Z,30.73
2018-06-11T23:29:17.152Z,29.77
2018-06-11T23:31:47.077Z,30.77
2018-06-11T23:34:18.094Z,29.87
2018-06-11T23:36:48.436Z,29.40
2018-06-11T23:39:18.383Z,30.30
2018-06-11T23:41:48.743Z,29.43
2018-06-11T23:44:18.933Z,28.73
2018-06-11T23:46:48.929Z,28.43
2018-06-11T23:49:19.058Z,29.10
2018-06-11T23:51:49.421Z,27.20
2018-06-11T23:54:19.766Z,27.83
2018-06-11T23:56:49.615Z,28.47
2018-06-11T23:59:19.749Z,29.33
